Time;durP1;ratioP1;P1;durP2;ratioP2;P2;SDS_P1;SDS_P2;PMS_P1;PMS_P2;Temp;Humidity;BMP_temperature;BMP_pressure;BME280_temperature;BME280_humidity;BME280_pressure;Samples;Min_cycle;Max_cycle;Signal;HPM_P1;HPM_P2
2024/01/29 00:00:24;;;;;;;6.93;3.75;;;;;;;;;;5093127;28;20414;-84
2024/01/29 00:02:50;;;;;;;6.18;3.78;;;;;;;;;;5075533;28;20481;-84
2024/01/29 00:05:16;;;;;;;6.03;3.67;;;;;;;;;;5097262;28;20459;-84
2024/01/29 00:07:42;;;;;;;6.93;3.92;;;;;;;;;;5122836;27;20408;-84
2024/01/29 00:10:08;;;;;;;6.82;3.85;;;;;;;;;;5093824;28;20487;-84
2024/01/29 00:12:35;;;;;;;6.53;3.78;;;;;;;;;;5096905;28;20414;-84
2024/01/29 00:15:01;;;;;;;5.80;3.60;;;;;;;;;;5075233;28;20406;-84
2024/01/29 00:17:27;;;;;;;7.50;3.90;;;;;;;;;;5100922;27;20456;-84
2024/01/29 00:19:53;;;;;;;6.40;3.60;;;;;;;;;;5112242;28;20408;-84
2024/01/29 00:22:19;;;;;;;7.20;3.95;;;;;;;;;;5071401;28;20471;-84
2024/01/29 00:24:46;;;;;;;6.70;3.83;;;;;;;;;;5082746;28;20999;-84
2024/01/29 00:27:12;;;;;;;7.72;4.03;;;;;;;;;;5075107;28;20425;-83
2024/01/29 00:29:38;;;;;;;6.40;3.85;;;;;;;;;;5085665;28;20490;-84
2024/01/29 00:32:05;;;;;;;6.60;3.93;;;;;;;;;;5080843;28;20398;-84
2024/01/29 00:34:31;;;;;;;7.68;3.95;;;;;;;;;;5074824;28;20401;-84
2024/01/29 00:36:57;;;;;;;6.43;3.83;;;;;;;;;;5085360;28;20745;-84
2024/01/29 00:39:23;;;;;;;6.80;4.03;;;;;;;;;;5095132;28;20407;-84
2024/01/29 00:41:50;;;;;;;5.30;3.60;;;;;;;;;;5091102;28;20419;-84
2024/01/29 00:44:17;;;;;;;6.32;3.70;;;;;;;;;;5090928;28;20398;-83
2024/01/29 00:46:43;;;;;;;6.13;3.50;;;;;;;;;;5083000;28;20948;-83
2024/01/29 00:49:09;;;;;;;7.80;4.35;;;;;;;;;;5092009;28;20406;-84
2024/01/29 00:51:36;;;;;;;6.15;3.95;;;;;;;;;;5090541;28;20476;-83
2024/01/29 00:54:02;;;;;;;5.97;3.58;;;;;;;;;;5087358;28;20474;-83
2024/01/29 00:56:28;;;;;;;6.90;4.03;;;;;;;;;;5089390;28;20467;-83
2024/01/29 00:58:54;;;;;;;6.85;4.25;;;;;;;;;;5091470;28;20401;-83
2024/01/29 01:01:20;;;;;;;6.70;3.97;;;;;;;;;;5101547;28;20918;-84
2024/01/29 01:03:46;;;;;;;6.97;4.30;;;;;;;;;;5095601;28;20397;-84
2024/01/29 01:06:12;;;;;;;7.18;3.85;;;;;;;;;;5094239;28;20449;-83
2024/01/29 01:08:38;;;;;;;7.35;4.20;;;;;;;;;;5125466;27;20413;-84
2024/01/29 01:11:05;;;;;;;6.28;4.05;;;;;;;;;;5095065;28;20481;-84
2024/01/29 01:13:31;;;;;;;7.53;3.90;;;;;;;;;;5083654;28;20439;-83
2024/01/29 01:15:57;;;;;;;6.80;4.00;;;;;;;;;;5108188;28;20401;-84
2024/01/29 01:18:23;;;;;;;7.03;4.10;;;;;;;;;;5111046;27;20728;-83
2024/01/29 01:20:49;;;;;;;7.78;4.10;;;;;;;;;;5082570;28;20439;-83
2024/01/29 01:23:15;;;;;;;6.57;3.78;;;;;;;;;;5069207;28;20414;-84
2024/01/29 01:25:42;;;;;;;6.38;4.00;;;;;;;;;;5107606;28;21005;-84
2024/01/29 01:28:08;;;;;;;7.20;4.25;;;;;;;;;;5091172;28;20753;-84
2024/01/29 01:30:35;;;;;;;7.65;3.88;;;;;;;;;;5117161;27;20439;-84
2024/01/29 01:33:01;;;;;;;6.77;4.00;;;;;;;;;;5100035;28;21147;-84
2024/01/29 01:35:27;;;;;;;6.68;3.92;;;;;;;;;;5093130;28;20417;-84
2024/01/29 01:37:53;;;;;;;7.47;4.35;;;;;;;;;;5103905;28;20416;-84
2024/01/29 01:40:19;;;;;;;7.22;4.10;;;;;;;;;;5080299;28;20927;-84
2024/01/29 01:42:47;;;;;;;7.32;4.18;;;;;;;;;;5107945;28;20392;-84
2024/01/29 01:45:13;;;;;;;9.17;4.70;;;;;;;;;;5077129;28;20396;-84
2024/01/29 01:47:40;;;;;;;8.30;4.50;;;;;;;;;;5104651;28;20801;-84
2024/01/29 01:50:08;;;;;;;8.43;4.57;;;;;;;;;;5096751;28;20578;-84
2024/01/29 01:52:34;;;;;;;6.43;4.05;;;;;;;;;;5087798;28;20418;-84
2024/01/29 01:55:01;;;;;;;7.85;4.45;;;;;;;;;;5107591;28;20998;-84
2024/01/29 01:57:28;;;;;;;7.28;4.60;;;;;;;;;;5090875;28;20403;-84
2024/01/29 01:59:55;;;;;;;8.02;4.38;;;;;;;;;;5107433;27;20418;-84
2024/01/29 02:02:21;;;;;;;6.60;4.50;;;;;;;;;;5107681;28;20401;-84
2024/01/29 02:04:48;;;;;;;8.02;4.25;;;;;;;;;;5085312;28;20566;-84
2024/01/29 02:07:14;;;;;;;6.72;4.10;;;;;;;;;;5092334;28;20908;-84
2024/01/29 02:09:40;;;;;;;7.30;4.32;;;;;;;;;;5094711;28;20392;-84
2024/01/29 02:12:08;;;;;;;8.67;4.67;;;;;;;;;;5073454;28;20428;-83
2024/01/29 02:14:34;;;;;;;8.18;4.50;;;;;;;;;;5094684;28;20489;-84
2024/01/29 02:17:00;;;;;;;7.72;4.30;;;;;;;;;;5090125;28;20405;-84
2024/01/29 02:19:26;;;;;;;7.35;4.50;;;;;;;;;;5118813;27;20435;-84
2024/01/29 02:21:54;;;;;;;7.15;4.60;;;;;;;;;;5097758;28;20923;-84
2024/01/29 02:24:20;;;;;;;9.13;5.10;;;;;;;;;;5096465;28;20402;-84
2024/01/29 02:26:47;;;;;;;7.90;4.68;;;;;;;;;;5097071;28;20401;-87
2024/01/29 02:29:13;;;;;;;9.25;4.72;;;;;;;;;;5118257;28;20407;-86
2024/01/29 02:31:39;;;;;;;7.63;4.80;;;;;;;;;;5126259;27;20477;-87
2024/01/29 02:34:05;;;;;;;7.82;4.57;;;;;;;;;;5091464;28;20893;-87
2024/01/29 02:36:31;;;;;;;7.35;4.38;;;;;;;;;;5102009;28;20400;-87
2024/01/29 02:38:57;;;;;;;7.97;4.53;;;;;;;;;;5096229;28;20416;-87
2024/01/29 02:41:23;;;;;;;7.72;4.30;;;;;;;;;;5103972;28;20511;-86
2024/01/29 02:43:49;;;;;;;8.10;4.78;;;;;;;;;;5097162;28;20397;-87
2024/01/29 02:46:18;;;;;;;7.97;4.60;;;;;;;;;;5111684;28;20429;-87
2024/01/29 02:48:44;;;;;;;7.67;4.80;;;;;;;;;;5114484;27;20759;-87
2024/01/29 02:51:10;;;;;;;6.25;4.50;;;;;;;;;;5097457;28;20397;-88
2024/01/29 02:53:36;;;;;;;8.50;4.75;;;;;;;;;;5111041;27;20409;-88
2024/01/29 02:56:02;;;;;;;9.43;4.93;;;;;;;;;;5111155;27;20420;-88
2024/01/29 02:58:29;;;;;;;9.50;5.43;;;;;;;;;;5096425;28;20400;-87
2024/01/29 03:00:56;;;;;;;8.98;5.18;;;;;;;;;;5142067;27;20449;-88
2024/01/29 03:03:22;;;;;;;7.20;4.90;;;;;;;;;;5145051;27;20449;-87
2024/01/29 03:05:48;;;;;;;7.87;5.07;;;;;;;;;;5095474;28;20396;-88
2024/01/29 03:08:14;;;;;;;7.20;4.72;;;;;;;;;;5094045;28;20401;-87
2024/01/29 03:10:40;;;;;;;7.95;4.85;;;;;;;;;;5116576;27;20398;-87
2024/01/29 03:13:06;;;;;;;8.68;5.03;;;;;;;;;;5110871;27;20410;-88
2024/01/29 03:15:32;;;;;;;7.70;4.80;;;;;;;;;;5093781;28;20408;-87
2024/01/29 03:17:58;;;;;;;8.60;5.07;;;;;;;;;;5078148;28;20405;-87
2024/01/29 03:20:24;;;;;;;7.18;4.80;;;;;;;;;;5088057;28;20418;-87
2024/01/29 03:22:50;;;;;;;8.40;5.10;;;;;;;;;;5077131;28;20889;-87
2024/01/29 03:25:16;;;;;;;8.90;5.20;;;;;;;;;;5099070;28;20910;-87
2024/01/29 03:27:42;;;;;;;8.57;5.18;;;;;;;;;;5082003;28;20416;-87
2024/01/29 03:30:09;;;;;;;9.70;5.63;;;;;;;;;;5103520;28;20485;-87
2024/01/29 03:32:35;;;;;;;8.55;5.20;;;;;;;;;;5137286;27;20409;-88
2024/01/29 03:35:01;;;;;;;9.18;5.30;;;;;;;;;;5108964;28;20448;-88
2024/01/29 03:37:27;;;;;;;7.50;5.00;;;;;;;;;;5096453;28;20494;-87
2024/01/29 03:39:54;;;;;;;8.30;5.17;;;;;;;;;;5107576;28;20615;-86
2024/01/29 03:42:20;;;;;;;9.18;5.45;;;;;;;;;;5104269;27;20394;-86
2024/01/29 03:44:46;;;;;;;9.63;5.10;;;;;;;;;;5093920;28;20422;-86
2024/01/29 03:47:12;;;;;;;8.52;4.95;;;;;;;;;;5112492;27;20451;-86
2024/01/29 03:49:38;;;;;;;8.20;5.22;;;;;;;;;;5089663;28;20420;-86
2024/01/29 03:52:04;;;;;;;8.65;5.10;;;;;;;;;;5090550;28;20392;-86
2024/01/29 03:54:30;;;;;;;8.27;5.20;;;;;;;;;;5148268;27;20732;-86
2024/01/29 03:56:56;;;;;;;9.93;5.28;;;;;;;;;;5147246;27;20403;-86
2024/01/29 03:59:23;;;;;;;7.77;5.30;;;;;;;;;;5110033;28;20393;-86
2024/01/29 04:01:49;;;;;;;9.77;5.60;;;;;;;;;;5139525;27;20420;-86
2024/01/29 04:04:15;;;;;;;8.60;5.40;;;;;;;;;;5097764;28;20748;-87
2024/01/29 04:06:43;;;;;;;9.10;5.35;;;;;;;;;;5085701;28;20780;-87
2024/01/29 04:09:09;;;;;;;10.73;5.68;;;;;;;;;;5094741;28;20396;-86
2024/01/29 04:11:36;;;;;;;7.80;5.32;;;;;;;;;;5094973;28;20400;-87
2024/01/29 04:14:03;;;;;;;8.32;5.05;;;;;;;;;;5112086;28;20786;-87
2024/01/29 04:16:29;;;;;;;10.55;5.43;;;;;;;;;;5094428;28;20475;-87
2024/01/29 04:18:55;;;;;;;9.70;5.30;;;;;;;;;;5094453;28;20418;-87
2024/01/29 04:21:21;;;;;;;8.93;5.38;;;;;;;;;;5093930;28;20823;-87
2024/01/29 04:23:47;;;;;;;9.80;5.63;;;;;;;;;;5115961;27;20541;-87
2024/01/29 04:26:13;;;;;;;10.18;5.65;;;;;;;;;;5126423;27;20820;-87
2024/01/29 04:28:39;;;;;;;8.25;5.32;;;;;;;;;;5111884;28;20457;-87
2024/01/29 04:31:05;;;;;;;7.97;5.37;;;;;;;;;;5140374;27;20396;-87
2024/01/29 04:33:31;;;;;;;8.30;5.18;;;;;;;;;;5081768;28;20404;-87
2024/01/29 04:35:57;;;;;;;8.23;5.43;;;;;;;;;;5141631;27;20777;-87
2024/01/29 04:38:23;;;;;;;8.03;5.20;;;;;;;;;;5098019;28;20406;-87
2024/01/29 04:40:50;;;;;;;10.35;5.70;;;;;;;;;;5094211;28;20424;-87
2024/01/29 04:43:16;;;;;;;10.88;5.20;;;;;;;;;;5085739;28;20904;-87
2024/01/29 04:45:42;;;;;;;8.53;5.30;;;;;;;;;;5093230;28;20400;-87
2024/01/29 04:48:08;;;;;;;7.60;5.35;;;;;;;;;;5109006;27;20483;-87
2024/01/29 04:50:34;;;;;;;10.15;5.93;;;;;;;;;;5099359;28;20402;-87
2024/01/29 04:53:00;;;;;;;9.07;5.45;;;;;;;;;;5093690;28;20501;-87
2024/01/29 04:55:27;;;;;;;9.27;5.93;;;;;;;;;;5110001;28;20582;-87
2024/01/29 04:57:53;;;;;;;12.68;5.70;;;;;;;;;;5085965;28;20431;-87
2024/01/29 05:00:19;;;;;;;8.85;5.28;;;;;;;;;;5108614;28;20424;-87
2024/01/29 05:02:47;;;;;;;14.57;5.88;;;;;;;;;;5092055;28;20402;-87
2024/01/29 05:05:14;;;;;;;10.05;5.90;;;;;;;;;;5095029;28;20428;-87
2024/01/29 05:07:40;;;;;;;10.15;5.90;;;;;;;;;;5083370;28;20406;-87
2024/01/29 05:10:07;;;;;;;9.35;5.57;;;;;;;;;;5119609;27;20402;-86
2024/01/29 05:12:34;;;;;;;10.30;5.95;;;;;;;;;;5078593;28;20918;-88
2024/01/29 05:15:00;;;;;;;7.93;5.50;;;;;;;;;;5100777;28;20451;-87
2024/01/29 05:17:26;;;;;;;10.97;6.13;;;;;;;;;;5107688;28;20518;-88
2024/01/29 05:19:52;;;;;;;8.70;5.93;;;;;;;;;;5094269;28;20397;-87
2024/01/29 05:22:18;;;;;;;8.63;5.70;;;;;;;;;;5101992;28;20406;-87
2024/01/29 05:24:44;;;;;;;9.63;6.20;;;;;;;;;;5108143;28;20413;-88
2024/01/29 05:27:10;;;;;;;10.63;6.30;;;;;;;;;;5083226;28;20393;-88
2024/01/29 05:29:36;;;;;;;10.43;6.30;;;;;;;;;;5143482;27;20451;-87
2024/01/29 05:32:02;;;;;;;11.60;6.22;;;;;;;;;;5142914;27;20398;-87
2024/01/29 05:34:28;;;;;;;7.90;5.82;;;;;;;;;;5060693;28;20398;-86
2024/01/29 05:36:54;;;;;;;10.50;6.43;;;;;;;;;;5103572;28;20426;-86
2024/01/29 05:39:20;;;;;;;9.73;6.18;;;;;;;;;;5094770;28;20410;-87
2024/01/29 05:41:46;;;;;;;8.40;5.53;;;;;;;;;;5072136;28;20499;-86
2024/01/29 05:44:13;;;;;;;9.88;6.40;;;;;;;;;;5108692;28;20394;-86
2024/01/29 05:46:39;;;;;;;9.35;5.90;;;;;;;;;;5100670;28;20396;-87
2024/01/29 05:49:05;;;;;;;8.98;6.28;;;;;;;;;;5094516;28;20403;-87
2024/01/29 05:51:31;;;;;;;9.57;6.50;;;;;;;;;;5083164;28;20394;-86
2024/01/29 05:53:57;;;;;;;10.32;6.00;;;;;;;;;;5074498;28;20449;-86
2024/01/29 05:56:23;;;;;;;9.63;5.57;;;;;;;;;;5101852;28;20403;-86
2024/01/29 05:58:49;;;;;;;9.60;6.27;;;;;;;;;;5094410;28;20723;-86
2024/01/29 06:01:15;;;;;;;9.50;6.53;;;;;;;;;;5091730;28;20418;-85
2024/01/29 06:03:41;;;;;;;9.48;6.57;;;;;;;;;;5104271;28;20904;-84
2024/01/29 06:06:07;;;;;;;10.18;6.00;;;;;;;;;;5097653;28;20443;-86
2024/01/29 06:08:34;;;;;;;8.95;6.32;;;;;;;;;;5092049;28;20433;-86
2024/01/29 06:11:00;;;;;;;9.93;6.47;;;;;;;;;;5117514;27;20406;-85
2024/01/29 06:13:27;;;;;;;9.52;6.05;;;;;;;;;;5094707;28;20482;-87
2024/01/29 06:15:53;;;;;;;8.93;5.95;;;;;;;;;;5099641;28;20407;-86
2024/01/29 06:18:19;;;;;;;9.50;6.13;;;;;;;;;;5095717;28;20402;-85
2024/01/29 06:20:45;;;;;;;10.85;6.82;;;;;;;;;;5095674;28;20596;-85
2024/01/29 06:23:12;;;;;;;10.02;6.55;;;;;;;;;;5097615;28;20457;-86
2024/01/29 06:25:38;;;;;;;10.10;7.13;;;;;;;;;;5114625;28;20487;-85
2024/01/29 06:28:06;;;;;;;10.67;6.97;;;;;;;;;;5115819;27;20487;-85
2024/01/29 06:30:33;;;;;;;10.90;7.50;;;;;;;;;;5109432;28;20402;-85
2024/01/29 06:32:59;;;;;;;10.03;7.00;;;;;;;;;;5112035;27;20521;-86
2024/01/29 06:35:25;;;;;;;9.82;6.80;;;;;;;;;;5110485;28;20401;-86
2024/01/29 06:37:51;;;;;;;11.98;6.97;;;;;;;;;;5098888;28;20436;-86
2024/01/29 06:40:17;;;;;;;11.48;6.97;;;;;;;;;;5083521;28;20413;-86
2024/01/29 06:42:43;;;;;;;10.70;7.32;;;;;;;;;;5095271;28;20437;-85
2024/01/29 06:45:10;;;;;;;11.95;7.35;;;;;;;;;;5083458;28;20405;-85
2024/01/29 06:47:36;;;;;;;11.27;6.72;;;;;;;;;;5087423;28;20400;-85
2024/01/29 06:50:02;;;;;;;11.32;7.45;;;;;;;;;;5086888;28;20394;-85
2024/01/29 06:52:28;;;;;;;13.65;7.50;;;;;;;;;;5136801;27;20417;-85
2024/01/29 06:54:54;;;;;;;11.45;6.72;;;;;;;;;;5096054;28;20396;-84
2024/01/29 06:57:20;;;;;;;13.43;7.20;;;;;;;;;;5112687;28;20397;-84
2024/01/29 06:59:46;;;;;;;10.90;7.35;;;;;;;;;;5098774;28;20580;-84
2024/01/29 07:02:12;;;;;;;11.18;7.70;;;;;;;;;;5110074;28;20887;-87
2024/01/29 07:04:39;;;;;;;12.02;7.88;;;;;;;;;;5086138;28;20449;-85
2024/01/29 07:07:05;;;;;;;10.90;7.25;;;;;;;;;;5142392;27;20407;-85
2024/01/29 07:09:34;;;;;;;11.60;7.17;;;;;;;;;;5138461;27;20404;-85
2024/01/29 07:12:00;;;;;;;11.63;8.38;;;;;;;;;;5117588;27;20914;-85
2024/01/29 07:14:26;;;;;;;12.45;7.72;;;;;;;;;;5130938;27;20433;-84
2024/01/29 07:16:52;;;;;;;10.98;7.35;;;;;;;;;;5093669;28;20445;-84
2024/01/29 07:19:23;;;;;;;12.55;7.03;;;;;;;;;;5141419;27;20454;-85
2024/01/29 07:21:50;;;;;;;10.60;7.63;;;;;;;;;;5105465;27;20420;-85
2024/01/29 07:24:17;;;;;;;11.15;7.78;;;;;;;;;;5085831;28;20453;-85
2024/01/29 07:26:43;;;;;;;9.98;7.43;;;;;;;;;;5137816;27;20428;-85
2024/01/29 07:29:09;;;;;;;11.98;7.43;;;;;;;;;;5132546;27;20433;-85
2024/01/29 07:31:35;;;;;;;10.88;8.60;;;;;;;;;;5099906;28;20430;-85
2024/01/29 07:34:01;;;;;;;10.70;7.32;;;;;;;;;;5129081;27;20399;-84
2024/01/29 07:36:27;;;;;;;13.27;7.55;;;;;;;;;;5070671;28;20406;-85
2024/01/29 07:38:53;;;;;;;12.70;7.72;;;;;;;;;;5137460;27;20480;-85
2024/01/29 07:41:20;;;;;;;12.38;8.77;;;;;;;;;;5123400;27;20446;-85
2024/01/29 07:43:46;;;;;;;11.20;7.40;;;;;;;;;;5110660;28;20413;-84
2024/01/29 07:46:13;;;;;;;11.32;7.65;;;;;;;;;;5090964;28;20897;-85
2024/01/29 07:48:39;;;;;;;11.23;7.55;;;;;;;;;;5086889;28;20401;-85
2024/01/29 07:51:05;;;;;;;12.50;8.10;;;;;;;;;;5105832;28;20414;-84
2024/01/29 07:53:31;;;;;;;12.30;7.95;;;;;;;;;;5129060;27;20398;-84
2024/01/29 07:55:57;;;;;;;11.93;7.80;;;;;;;;;;5088433;28;20832;-84
2024/01/29 07:58:23;;;;;;;12.10;7.75;;;;;;;;;;5084399;28;20727;-85
2024/01/29 08:00:50;;;;;;;12.25;8.73;;;;;;;;;;5080725;28;20418;-84
2024/01/29 08:03:16;;;;;;;12.73;8.05;;;;;;;;;;5094571;28;20947;-84
2024/01/29 08:05:42;;;;;;;11.00;8.00;;;;;;;;;;5103059;28;20467;-85
2024/01/29 08:08:08;;;;;;;12.80;7.95;;;;;;;;;;5096441;28;20400;-84
2024/01/29 08:10:35;;;;;;;13.38;8.80;;;;;;;;;;5086311;28;20395;-86
2024/01/29 08:13:01;;;;;;;11.60;7.63;;;;;;;;;;5111022;28;20412;-85
2024/01/29 08:15:29;;;;;;;12.30;7.60;;;;;;;;;;5091375;28;20418;-85
2024/01/29 08:17:55;;;;;;;13.93;8.35;;;;;;;;;;5084804;28;20412;-83
2024/01/29 08:20:23;;;;;;;11.55;8.02;;;;;;;;;;5136616;27;20466;-84
2024/01/29 08:22:49;;;;;;;13.55;9.05;;;;;;;;;;5133387;27;20488;-84
2024/01/29 08:25:15;;;;;;;12.57;8.13;;;;;;;;;;5090905;27;20468;-83
2024/01/29 08:27:41;;;;;;;13.13;8.57;;;;;;;;;;5139786;27;20414;-81
2024/01/29 08:30:07;;;;;;;13.07;8.27;;;;;;;;;;5120030;27;20408;-81
2024/01/29 08:32:33;;;;;;;16.05;8.77;;;;;;;;;;5083970;28;20775;-81
2024/01/29 08:35:00;;;;;;;13.82;8.68;;;;;;;;;;5106755;28;20422;-81
2024/01/29 08:37:27;;;;;;;12.55;8.48;;;;;;;;;;5104678;27;20418;-81
2024/01/29 08:39:53;;;;;;;13.67;8.20;;;;;;;;;;5136426;27;20473;-81
2024/01/29 08:42:19;;;;;;;13.93;9.38;;;;;;;;;;5110090;27;20927;-81
2024/01/29 08:44:46;;;;;;;13.32;9.23;;;;;;;;;;5111028;27;20432;-81
2024/01/29 08:47:12;;;;;;;14.27;8.45;;;;;;;;;;5115873;27;20412;-82
2024/01/29 08:49:38;;;;;;;12.57;8.40;;;;;;;;;;5102287;27;20530;-82
2024/01/29 08:52:04;;;;;;;12.90;8.50;;;;;;;;;;5107146;27;20446;-81
2024/01/29 08:54:30;;;;;;;12.82;8.70;;;;;;;;;;5089857;28;20404;-82
2024/01/29 08:56:56;;;;;;;13.68;8.85;;;;;;;;;;5085427;28;20767;-82
2024/01/29 08:59:22;;;;;;;13.00;8.40;;;;;;;;;;5095615;28;20408;-81
2024/01/29 09:01:48;;;;;;;13.13;9.10;;;;;;;;;;5104826;28;20424;-82
2024/01/29 09:04:15;;;;;;;12.00;8.50;;;;;;;;;;5097096;28;20777;-81
2024/01/29 09:06:41;;;;;;;14.65;9.43;;;;;;;;;;5100835;27;20846;-82
2024/01/29 09:09:07;;;;;;;12.98;8.50;;;;;;;;;;5094585;28;20411;-81
2024/01/29 09:11:33;;;;;;;12.50;9.00;;;;;;;;;;5140119;27;20424;-81
2024/01/29 09:13:59;;;;;;;12.38;9.35;;;;;;;;;;5110993;28;20439;-81
2024/01/29 09:16:25;;;;;;;12.18;8.73;;;;;;;;;;5094398;28;20486;-81
2024/01/29 09:18:51;;;;;;;12.60;8.10;;;;;;;;;;5103952;28;21029;-81
2024/01/29 09:21:17;;;;;;;12.30;8.50;;;;;;;;;;5092508;28;20990;-80
2024/01/29 09:23:45;;;;;;;13.95;9.35;;;;;;;;;;5088909;28;21687;-80
2024/01/29 09:26:11;;;;;;;13.30;8.80;;;;;;;;;;5091497;28;20459;-81
2024/01/29 09:28:37;;;;;;;12.70;9.02;;;;;;;;;;5105831;28;20430;-82
2024/01/29 09:31:04;;;;;;;13.98;9.50;;;;;;;;;;5138046;27;20393;-84
2024/01/29 09:33:30;;;;;;;10.80;8.60;;;;;;;;;;5093858;28;20393;-83
2024/01/29 09:35:56;;;;;;;14.20;8.73;;;;;;;;;;5111605;28;20396;-83
2024/01/29 09:38:22;;;;;;;13.75;9.05;;;;;;;;;;5093726;28;20532;-83
2024/01/29 09:40:49;;;;;;;15.48;9.10;;;;;;;;;;5093845;28;20428;-83
2024/01/29 09:43:17;;;;;;;14.35;9.70;;;;;;;;;;5107906;28;20955;-84
2024/01/29 09:45:44;;;;;;;13.00;9.05;;;;;;;;;;5126430;27;20402;-84
2024/01/29 09:48:12;;;;;;;14.43;9.47;;;;;;;;;;5098188;28;20396;-84
2024/01/29 09:50:39;;;;;;;13.93;9.68;;;;;;;;;;5112220;28;20404;-84
2024/01/29 09:53:07;;;;;;;13.95;9.27;;;;;;;;;;5094513;28;20396;-83
2024/01/29 09:55:33;;;;;;;15.90;10.65;;;;;;;;;;5146467;27;20408;-84
2024/01/29 09:57:59;;;;;;;14.68;9.63;;;;;;;;;;5099511;28;20478;-83
2024/01/29 10:00:25;;;;;;;15.00;9.45;;;;;;;;;;5105592;28;20425;-84
2024/01/29 10:02:53;;;;;;;15.15;10.35;;;;;;;;;;5095807;28;20772;-83
2024/01/29 10:05:20;;;;;;;19.73;11.07;;;;;;;;;;5094477;28;20392;-83
2024/01/29 10:07:46;;;;;;;17.63;12.38;;;;;;;;;;5093955;28;20729;-83
2024/01/29 10:10:12;;;;;;;17.85;12.43;;;;;;;;;;5099824;28;20941;-83
2024/01/29 10:12:38;;;;;;;18.08;12.23;;;;;;;;;;5095811;28;20479;-83
2024/01/29 10:15:05;;;;;;;21.92;12.77;;;;;;;;;;5111178;28;20444;-83
2024/01/29 10:17:33;;;;;;;18.30;12.13;;;;;;;;;;5094661;28;20394;-85
2024/01/29 10:19:59;;;;;;;16.60;10.98;;;;;;;;;;5095550;28;20396;-84
2024/01/29 10:22:26;;;;;;;14.88;10.65;;;;;;;;;;5077377;28;20744;-80
2024/01/29 10:25:18;;;;;;;15.80;10.63;;;;;;;;;;5106012;28;20403;-83
2024/01/29 10:27:45;;;;;;;14.18;9.85;;;;;;;;;;5093885;28;20403;-84
2024/01/29 10:30:11;;;;;;;16.40;10.93;;;;;;;;;;5076177;28;20432;-84
2024/01/29 10:32:37;;;;;;;13.93;10.18;;;;;;;;;;5125843;28;20404;-85
2024/01/29 10:35:04;;;;;;;15.30;10.30;;;;;;;;;;5089648;28;20398;-86
2024/01/29 10:37:30;;;;;;;15.65;10.85;;;;;;;;;;5103829;28;20462;-85
2024/01/29 10:39:58;;;;;;;15.52;9.50;;;;;;;;;;5105247;28;20397;-85
2024/01/29 10:42:26;;;;;;;14.18;10.10;;;;;;;;;;5142910;27;20402;-85
2024/01/29 10:44:53;;;;;;;14.75;10.05;;;;;;;;;;5107605;28;20924;-84
2024/01/29 10:47:29;;;;;;;16.40;10.32;;;;;;;;;;5094794;28;20422;-85
2024/01/29 10:49:56;;;;;;;14.45;10.45;;;;;;;;;;5084164;28;20759;-85
2024/01/29 10:52:23;;;;;;;14.48;9.55;;;;;;;;;;5107097;28;20426;-86
2024/01/29 10:54:50;;;;;;;13.75;9.55;;;;;;;;;;5110444;28;20446;-85
2024/01/29 10:57:16;;;;;;;15.13;9.85;;;;;;;;;;5090213;28;20408;-85
2024/01/29 10:59:43;;;;;;;14.55;10.07;;;;;;;;;;5136125;27;20401;-84
2024/01/29 11:02:16;;;;;;;14.50;10.27;;;;;;;;;;5105518;28;20883;-84
2024/01/29 11:04:43;;;;;;;14.38;9.63;;;;;;;;;;5108040;28;20483;-84
2024/01/29 11:07:29;;;;;;;13.13;9.75;;;;;;;;;;5096156;28;20396;-84
2024/01/29 11:10:18;;;;;;;15.00;10.32;;;;;;;;;;5095742;28;20399;-84
2024/01/29 11:12:46;;;;;;;13.63;9.93;;;;;;;;;;5098451;28;20411;-85
2024/01/29 11:15:21;;;;;;;14.43;10.25;;;;;;;;;;5138683;27;20469;-84
2024/01/29 11:17:47;;;;;;;14.48;10.32;;;;;;;;;;5111077;28;20402;-85
2024/01/29 11:20:15;;;;;;;14.45;10.18;;;;;;;;;;5134194;27;20511;-84
2024/01/29 11:22:41;;;;;;;17.58;11.15;;;;;;;;;;5115993;27;20414;-84
2024/01/29 11:25:15;;;;;;;14.27;10.20;;;;;;;;;;5109939;28;20400;-84
2024/01/29 11:27:45;;;;;;;14.40;10.38;;;;;;;;;;5111468;28;20419;-84
2024/01/29 11:30:20;;;;;;;17.27;11.48;;;;;;;;;;5122652;27;20420;-84
2024/01/29 11:32:47;;;;;;;15.65;10.63;;;;;;;;;;5113373;28;20780;-83
2024/01/29 11:35:15;;;;;;;17.92;11.13;;;;;;;;;;5093344;28;20483;-83
2024/01/29 11:37:44;;;;;;;16.90;11.90;;;;;;;;;;5112843;28;20414;-83
2024/01/29 11:40:29;;;;;;;20.67;12.23;;;;;;;;;;5128388;27;20451;-83
2024/01/29 11:42:55;;;;;;;26.38;13.88;;;;;;;;;;5111280;27;20527;-83
2024/01/29 11:45:27;;;;;;;21.35;12.88;;;;;;;;;;5532870;23;20500;-83
2024/01/29 11:47:53;;;;;;;21.58;13.05;;;;;;;;;;5074634;28;20392;-84
2024/01/29 11:50:19;;;;;;;19.10;13.00;;;;;;;;;;5076517;28;20505;-83
2024/01/29 11:52:46;;;;;;;21.88;12.40;;;;;;;;;;5077168;28;20402;-83
2024/01/29 11:55:14;;;;;;;22.02;14.10;;;;;;;;;;5060627;28;20453;-84
2024/01/29 11:57:44;;;;;;;23.75;13.77;;;;;;;;;;5075791;28;20890;-84
2024/01/29 12:00:11;;;;;;;21.70;13.57;;;;;;;;;;5073382;28;20412;-84
2024/01/29 12:02:37;;;;;;;21.27;13.20;;;;;;;;;;5091438;28;20405;-83
2024/01/29 12:05:04;;;;;;;22.67;13.68;;;;;;;;;;5085697;28;20414;-83
2024/01/29 12:07:30;;;;;;;23.50;14.05;;;;;;;;;;5056252;28;20451;-83
2024/01/29 12:09:56;;;;;;;24.77;14.15;;;;;;;;;;5061562;28;20406;-83
2024/01/29 12:12:22;;;;;;;25.33;14.30;;;;;;;;;;5079021;28;20455;-83
2024/01/29 12:14:48;;;;;;;24.73;14.73;;;;;;;;;;5095184;28;20543;-83
2024/01/29 12:17:15;;;;;;;26.80;14.90;;;;;;;;;;5095010;28;20903;-82
2024/01/29 12:19:41;;;;;;;27.43;14.27;;;;;;;;;;5079221;28;20483;-83
2024/01/29 12:22:12;;;;;;;28.55;15.55;;;;;;;;;;5078697;28;20477;-83
2024/01/29 12:24:38;;;;;;;32.08;15.88;;;;;;;;;;5078614;28;20418;-83
2024/01/29 12:27:04;;;;;;;30.20;16.02;;;;;;;;;;5077924;28;20877;-83
2024/01/29 12:29:34;;;;;;;28.63;15.35;;;;;;;;;;5102695;28;20885;-83
2024/01/29 12:32:06;;;;;;;27.38;15.52;;;;;;;;;;5074955;28;20425;-83
2024/01/29 12:34:32;;;;;;;30.48;16.17;;;;;;;;;;5075372;28;20406;-83
2024/01/29 12:36:58;;;;;;;32.08;15.90;;;;;;;;;;5075109;28;20410;-83
2024/01/29 12:39:26;;;;;;;29.50;15.93;;;;;;;;;;5109281;28;20398;-84
2024/01/29 12:41:52;;;;;;;31.13;15.55;;;;;;;;;;5092325;28;20779;-83
2024/01/29 12:44:19;;;;;;;29.10;16.77;;;;;;;;;;5072287;28;20418;-83
2024/01/29 12:46:55;;;;;;;26.63;14.80;;;;;;;;;;5081788;28;20419;-83
2024/01/29 12:49:21;;;;;;;30.65;15.50;;;;;;;;;;5055487;28;20459;-83
2024/01/29 12:51:48;;;;;;;27.50;14.60;;;;;;;;;;5071300;28;20423;-83
2024/01/29 12:54:14;;;;;;;29.88;15.88;;;;;;;;;;5092636;27;20417;-83
2024/01/29 12:56:40;;;;;;;25.08;14.30;;;;;;;;;;5074283;28;20398;-84
2024/01/29 12:59:07;;;;;;;34.90;22.83;;;;;;;;;;5084048;28;20433;-85
2024/01/29 13:01:33;;;;;;;29.00;15.88;;;;;;;;;;5080273;28;20426;-85
2024/01/29 13:03:59;;;;;;;23.83;14.00;;;;;;;;;;5065677;28;20419;-85
2024/01/29 13:06:25;;;;;;;24.83;14.48;;;;;;;;;;5071778;28;20414;-85
2024/01/29 13:08:51;;;;;;;26.15;14.05;;;;;;;;;;5058219;28;20434;-85
2024/01/29 13:11:17;;;;;;;23.77;14.50;;;;;;;;;;5075609;28;20948;-85
2024/01/29 13:13:43;;;;;;;22.95;14.00;;;;;;;;;;5080722;28;20503;-86
2024/01/29 13:16:09;;;;;;;21.45;13.77;;;;;;;;;;5076303;28;20420;-85
2024/01/29 13:18:36;;;;;;;23.40;14.15;;;;;;;;;;5086853;28;20414;-86
2024/01/29 13:21:04;;;;;;;24.67;14.90;;;;;;;;;;5091095;28;20491;-86
2024/01/29 13:23:30;;;;;;;22.83;14.85;;;;;;;;;;5066874;28;20456;-86
2024/01/29 13:25:56;;;;;;;26.40;15.50;;;;;;;;;;5073024;28;20405;-86
2024/01/29 13:28:22;;;;;;;24.02;14.60;;;;;;;;;;5073647;28;20429;-86
2024/01/29 13:30:50;;;;;;;20.70;15.55;;;;;;;;;;5073633;28;20875;-86
2024/01/29 13:33:16;;;;;;;22.20;15.13;;;;;;;;;;5067454;28;20419;-85
2024/01/29 13:35:42;;;;;;;23.48;14.27;;;;;;;;;;5078107;28;20419;-86
2024/01/29 13:38:08;;;;;;;17.83;13.38;;;;;;;;;;5074284;28;20406;-86
2024/01/29 13:40:34;;;;;;;19.55;13.13;;;;;;;;;;5084567;28;20423;-86
2024/01/29 13:43:02;;;;;;;19.38;13.00;;;;;;;;;;5089028;28;20452;-85
2024/01/29 13:45:28;;;;;;;20.38;13.90;;;;;;;;;;5067601;28;20949;-85
2024/01/29 13:47:54;;;;;;;20.20;14.25;;;;;;;;;;5070961;28;20424;-86
2024/01/29 13:50:20;;;;;;;18.40;13.38;;;;;;;;;;5082174;28;20410;-85
2024/01/29 13:52:47;;;;;;;19.90;13.45;;;;;;;;;;5058094;28;20493;-85
2024/01/29 13:55:13;;;;;;;19.75;13.50;;;;;;;;;;5103037;28;20390;-85
2024/01/29 13:57:39;;;;;;;20.17;13.98;;;;;;;;;;5093382;28;20400;-85
2024/01/29 14:00:05;;;;;;;21.70;13.90;;;;;;;;;;5066890;28;20482;-84
2024/01/29 14:02:34;;;;;;;18.90;14.25;;;;;;;;;;5076320;28;20422;-85
2024/01/29 14:05:01;;;;;;;21.08;14.95;;;;;;;;;;5065878;28;20898;-85
2024/01/29 14:07:27;;;;;;;20.10;13.47;;;;;;;;;;5071915;28;20402;-84
2024/01/29 14:09:54;;;;;;;20.13;13.40;;;;;;;;;;5073790;28;20394;-85
2024/01/29 14:12:21;;;;;;;20.10;13.98;;;;;;;;;;5074135;28;20489;-86
2024/01/29 14:14:47;;;;;;;21.52;14.10;;;;;;;;;;5066106;28;20414;-85
2024/01/29 14:17:13;;;;;;;20.53;13.87;;;;;;;;;;5087035;28;20422;-84
2024/01/29 14:19:39;;;;;;;22.05;13.88;;;;;;;;;;5057582;28;20406;-84
2024/01/29 14:22:05;;;;;;;19.75;13.38;;;;;;;;;;5083113;28;20462;-82
2024/01/29 14:24:33;;;;;;;17.33;13.13;;;;;;;;;;5075351;28;20404;-83
2024/01/29 14:26:59;;;;;;;19.00;13.25;;;;;;;;;;5067575;28;20397;-85